sensor_id;sensor_type;location;lat;lon;timestamp;P1;durP1;ratioP1;P2;durP2;ratioP2
37459;SDS011;23318;50.966;5.284;2024-02-26T00:01:51;1.98;;;0.73;;
37459;SDS011;23318;50.966;5.284;2024-02-26T00:04:17;1.13;;;0.90;;
37459;SDS011;23318;50.966;5.284;2024-02-26T00:06:43;1.70;;;0.90;;
37459;SDS011;23318;50.966;5.284;2024-02-26T00:09:09;4.00;;;1.58;;
37459;SDS011;23318;50.966;5.284;2024-02-26T00:11:35;1.40;;;0.77;;
37459;SDS011;23318;50.966;5.284;2024-02-26T00:14:02;0.93;;;0.70;;
37459;SDS011;23318;50.966;5.284;2024-02-26T00:16:28;2.58;;;0.95;;
37459;SDS011;23318;50.966;5.284;2024-02-26T00:18:54;7.30;;;1.15;;
37459;SDS011;23318;50.966;5.284;2024-02-26T00:21:19;1.98;;;0.90;;
37459;SDS011;23318;50.966;5.284;2024-02-26T00:23:45;1.17;;;1.00;;
37459;SDS011;23318;50.966;5.284;2024-02-26T00:26:11;4.53;;;1.15;;
37459;SDS011;23318;50.966;5.284;2024-02-26T00:28:37;1.20;;;1.00;;
37459;SDS011;23318;50.966;5.284;2024-02-26T00:31:02;3.53;;;1.05;;
37459;SDS011;23318;50.966;5.284;2024-02-26T00:33:28;4.53;;;0.90;;
37459;SDS011;23318;50.966;5.284;2024-02-26T00:35:54;3.13;;;1.05;;
37459;SDS011;23318;50.966;5.284;2024-02-26T00:38:20;0.98;;;0.80;;
37459;SDS011;23318;50.966;5.284;2024-02-26T00:40:45;3.25;;;1.30;;
37459;SDS011;23318;50.966;5.284;2024-02-26T00:43:11;3.97;;;1.23;;
37459;SDS011;23318;50.966;5.284;2024-02-26T00:45:37;3.15;;;1.10;;
37459;SDS011;23318;50.966;5.284;2024-02-26T00:48:02;6.18;;;1.27;;
37459;SDS011;23318;50.966;5.284;2024-02-26T00:50:31;2.83;;;0.73;;
37459;SDS011;23318;50.966;5.284;2024-02-26T00:52:57;3.85;;;1.70;;
37459;SDS011;23318;50.966;5.284;2024-02-26T00:55:22;1.63;;;1.08;;
37459;SDS011;23318;50.966;5.284;2024-02-26T00:57:48;1.35;;;1.10;;
37459;SDS011;23318;50.966;5.284;2024-02-26T01:00:14;1.40;;;0.82;;
37459;SDS011;23318;50.966;5.284;2024-02-26T01:02:40;2.13;;;1.10;;
37459;SDS011;23318;50.966;5.284;2024-02-26T01:05:07;1.23;;;0.75;;
37459;SDS011;23318;50.966;5.284;2024-02-26T01:07:34;2.75;;;0.88;;
37459;SDS011;23318;50.966;5.284;2024-02-26T01:10:04;2.03;;;1.00;;
37459;SDS011;23318;50.966;5.284;2024-02-26T01:12:33;2.55;;;1.00;;
37459;SDS011;23318;50.966;5.284;2024-02-26T01:14:59;1.15;;;1.00;;
37459;SDS011;23318;50.966;5.284;2024-02-26T01:17:25;1.35;;;0.90;;
37459;SDS011;23318;50.966;5.284;2024-02-26T01:19:51;1.90;;;0.95;;
37459;SDS011;23318;50.966;5.284;2024-02-26T01:22:18;3.10;;;1.23;;
37459;SDS011;23318;50.966;5.284;2024-02-26T01:24:44;1.80;;;1.20;;
37459;SDS011;23318;50.966;5.284;2024-02-26T01:27:09;3.20;;;0.98;;
37459;SDS011;23318;50.966;5.284;2024-02-26T01:29:35;2.67;;;1.02;;
37459;SDS011;23318;50.966;5.284;2024-02-26T01:32:01;3.40;;;0.85;;
37459;SDS011;23318;50.966;5.284;2024-02-26T01:34:26;1.48;;;0.93;;
37459;SDS011;23318;50.966;5.284;2024-02-26T01:36:52;2.88;;;0.93;;
37459;SDS011;23318;50.966;5.284;2024-02-26T01:39:18;2.75;;;1.20;;
37459;SDS011;23318;50.966;5.284;2024-02-26T01:41:43;2.65;;;1.20;;
37459;SDS011;23318;50.966;5.284;2024-02-26T01:44:11;2.40;;;1.40;;
37459;SDS011;23318;50.966;5.284;2024-02-26T01:46:38;3.55;;;0.90;;
37459;SDS011;23318;50.966;5.284;2024-02-26T01:49:04;2.63;;;1.30;;
37459;SDS011;23318;50.966;5.284;2024-02-26T01:51:30;1.88;;;1.02;;
37459;SDS011;23318;50.966;5.284;2024-02-26T01:53:58;1.08;;;0.98;;
37459;SDS011;23318;50.966;5.284;2024-02-26T01:56:26;3.72;;;1.70;;
37459;SDS011;23318;50.966;5.284;2024-02-26T01:58:55;2.35;;;1.15;;
37459;SDS011;23318;50.966;5.284;2024-02-26T02:01:22;1.67;;;1.17;;
37459;SDS011;23318;50.966;5.284;2024-02-26T02:03:51;3.22;;;1.38;;
37459;SDS011;23318;50.966;5.284;2024-02-26T02:06:16;4.53;;;1.10;;
37459;SDS011;23318;50.966;5.284;2024-02-26T02:08:43;2.05;;;0.90;;
37459;SDS011;23318;50.966;5.284;2024-02-26T02:11:08;7.68;;;1.45;;
37459;SDS011;23318;50.966;5.284;2024-02-26T02:13:36;1.92;;;0.88;;
37459;SDS011;23318;50.966;5.284;2024-02-26T02:16:02;5.70;;;1.20;;
37459;SDS011;23318;50.966;5.284;2024-02-26T02:18:29;1.77;;;1.27;;
37459;SDS011;23318;50.966;5.284;2024-02-26T02:20:54;2.97;;;0.98;;
37459;SDS011;23318;50.966;5.284;2024-02-26T02:23:21;1.67;;;1.10;;
37459;SDS011;23318;50.966;5.284;2024-02-26T02:25:47;3.10;;;1.38;;
37459;SDS011;23318;50.966;5.284;2024-02-26T02:28:13;4.28;;;1.45;;
37459;SDS011;23318;50.966;5.284;2024-02-26T02:30:39;1.30;;;1.00;;
37459;SDS011;23318;50.966;5.284;2024-02-26T02:33:05;3.83;;;1.00;;
37459;SDS011;23318;50.966;5.284;2024-02-26T02:35:31;3.45;;;1.15;;
37459;SDS011;23318;50.966;5.284;2024-02-26T02:37:57;1.60;;;1.15;;
37459;SDS011;23318;50.966;5.284;2024-02-26T02:40:23;2.85;;;1.27;;
37459;SDS011;23318;50.966;5.284;2024-02-26T02:42:49;3.45;;;1.00;;
37459;SDS011;23318;50.966;5.284;2024-02-26T02:45:14;1.50;;;1.10;;
37459;SDS011;23318;50.966;5.284;2024-02-26T02:47:40;2.30;;;1.30;;
37459;SDS011;23318;50.966;5.284;2024-02-26T02:50:06;1.25;;;1.13;;
37459;SDS011;23318;50.966;5.284;2024-02-26T02:52:31;2.72;;;1.02;;
37459;SDS011;23318;50.966;5.284;2024-02-26T02:54:57;1.70;;;1.52;;
37459;SDS011;23318;50.966;5.284;2024-02-26T02:57:23;1.95;;;1.38;;
37459;SDS011;23318;50.966;5.284;2024-02-26T02:59:49;4.93;;;1.35;;
37459;SDS011;23318;50.966;5.284;2024-02-26T03:02:15;2.30;;;1.45;;
37459;SDS011;23318;50.966;5.284;2024-02-26T03:04:40;2.20;;;1.13;;
37459;SDS011;23318;50.966;5.284;2024-02-26T03:07:06;2.55;;;1.27;;
37459;SDS011;23318;50.966;5.284;2024-02-26T03:09:31;3.63;;;1.70;;
37459;SDS011;23318;50.966;5.284;2024-02-26T03:11:57;5.38;;;1.30;;
37459;SDS011;23318;50.966;5.284;2024-02-26T03:14:23;2.10;;;1.20;;
37459;SDS011;23318;50.966;5.284;2024-02-26T03:16:49;3.17;;;1.20;;
37459;SDS011;23318;50.966;5.284;2024-02-26T03:19:15;3.70;;;1.48;;
37459;SDS011;23318;50.966;5.284;2024-02-26T03:21:43;3.05;;;1.40;;
37459;SDS011;23318;50.966;5.284;2024-02-26T03:24:09;1.58;;;1.48;;
37459;SDS011;23318;50.966;5.284;2024-02-26T03:26:35;1.80;;;1.52;;
37459;SDS011;23318;50.966;5.284;2024-02-26T03:29:02;1.58;;;1.48;;
37459;SDS011;23318;50.966;5.284;2024-02-26T03:31:28;1.85;;;1.60;;
37459;SDS011;23318;50.966;5.284;2024-02-26T03:33:53;4.05;;;2.03;;
37459;SDS011;23318;50.966;5.284;2024-02-26T03:36:19;2.38;;;1.67;;
37459;SDS011;23318;50.966;5.284;2024-02-26T03:38:46;2.13;;;1.58;;
37459;SDS011;23318;50.966;5.284;2024-02-26T03:41:13;2.47;;;1.58;;
37459;SDS011;23318;50.966;5.284;2024-02-26T03:43:38;4.80;;;2.22;;
37459;SDS011;23318;50.966;5.284;2024-02-26T03:46:07;2.60;;;1.63;;
37459;SDS011;23318;50.966;5.284;2024-02-26T03:48:34;3.08;;;1.95;;
37459;SDS011;23318;50.966;5.284;2024-02-26T03:51:00;2.92;;;2.10;;
37459;SDS011;23318;50.966;5.284;2024-02-26T03:53:25;2.20;;;1.90;;
37459;SDS011;23318;50.966;5.284;2024-02-26T03:55:51;2.30;;;2.00;;
37459;SDS011;23318;50.966;5.284;2024-02-26T03:58:17;3.80;;;1.98;;
37459;SDS011;23318;50.966;5.284;2024-02-26T04:00:43;3.13;;;1.88;;
37459;SDS011;23318;50.966;5.284;2024-02-26T04:03:09;2.33;;;1.90;;
37459;SDS011;23318;50.966;5.284;2024-02-26T04:05:35;4.43;;;2.35;;
37459;SDS011;23318;50.966;5.284;2024-02-26T04:08:01;3.28;;;2.08;;
37459;SDS011;23318;50.966;5.284;2024-02-26T04:10:28;2.92;;;2.15;;
37459;SDS011;23318;50.966;5.284;2024-02-26T04:12:54;3.60;;;2.63;;
37459;SDS011;23318;50.966;5.284;2024-02-26T04:15:19;3.85;;;2.45;;
37459;SDS011;23318;50.966;5.284;2024-02-26T04:17:45;3.35;;;2.53;;
37459;SDS011;23318;50.966;5.284;2024-02-26T04:20:13;5.07;;;2.70;;
37459;SDS011;23318;50.966;5.284;2024-02-26T04:22:40;5.22;;;3.63;;
37459;SDS011;23318;50.966;5.284;2024-02-26T04:25:06;5.03;;;3.30;;
37459;SDS011;23318;50.966;5.284;2024-02-26T04:27:32;5.43;;;3.83;;
37459;SDS011;23318;50.966;5.284;2024-02-26T04:29:58;11.35;;;4.70;;
37459;SDS011;23318;50.966;5.284;2024-02-26T04:32:23;6.82;;;3.92;;
37459;SDS011;23318;50.966;5.284;2024-02-26T04:34:49;9.93;;;4.38;;
37459;SDS011;23318;50.966;5.284;2024-02-26T04:37:15;8.23;;;4.32;;
37459;SDS011;23318;50.966;5.284;2024-02-26T04:39:40;10.25;;;3.78;;
37459;SDS011;23318;50.966;5.284;2024-02-26T04:42:06;5.95;;;3.88;;
37459;SDS011;23318;50.966;5.284;2024-02-26T04:44:32;8.93;;;4.30;;
37459;SDS011;23318;50.966;5.284;2024-02-26T04:46:58;5.68;;;4.18;;
37459;SDS011;23318;50.966;5.284;2024-02-26T04:49:23;6.45;;;4.18;;
37459;SDS011;23318;50.966;5.284;2024-02-26T04:51:49;7.63;;;3.97;;
37459;SDS011;23318;50.966;5.284;2024-02-26T04:54:15;9.10;;;4.68;;
37459;SDS011;23318;50.966;5.284;2024-02-26T04:56:42;8.07;;;4.72;;
37459;SDS011;23318;50.966;5.284;2024-02-26T04:59:07;7.60;;;4.65;;
37459;SDS011;23318;50.966;5.284;2024-02-26T05:01:33;6.65;;;4.03;;
37459;SDS011;23318;50.966;5.284;2024-02-26T05:03:59;8.00;;;4.68;;
37459;SDS011;23318;50.966;5.284;2024-02-26T05:06:24;8.52;;;4.90;;
37459;SDS011;23318;50.966;5.284;2024-02-26T05:08:50;10.60;;;4.65;;
37459;SDS011;23318;50.966;5.284;2024-02-26T05:11:16;8.38;;;4.88;;
37459;SDS011;23318;50.966;5.284;2024-02-26T05:13:43;7.45;;;4.50;;
37459;SDS011;23318;50.966;5.284;2024-02-26T05:16:10;7.28;;;4.75;;
37459;SDS011;23318;50.966;5.284;2024-02-26T05:18:36;7.50;;;4.95;;
37459;SDS011;23318;50.966;5.284;2024-02-26T05:21:01;6.63;;;4.70;;
37459;SDS011;23318;50.966;5.284;2024-02-26T05:23:28;12.35;;;5.85;;
37459;SDS011;23318;50.966;5.284;2024-02-26T05:25:56;10.35;;;5.72;;
37459;SDS011;23318;50.966;5.284;2024-02-26T05:28:21;7.57;;;5.25;;
37459;SDS011;23318;50.966;5.284;2024-02-26T05:30:47;8.60;;;5.13;;
37459;SDS011;23318;50.966;5.284;2024-02-26T05:33:13;8.27;;;5.57;;
37459;SDS011;23318;50.966;5.284;2024-02-26T05:35:38;7.65;;;4.75;;
37459;SDS011;23318;50.966;5.284;2024-02-26T05:38:05;9.27;;;5.00;;
37459;SDS011;23318;50.966;5.284;2024-02-26T05:40:31;9.65;;;5.68;;
37459;SDS011;23318;50.966;5.284;2024-02-26T05:42:56;9.00;;;5.55;;
37459;SDS011;23318;50.966;5.284;2024-02-26T05:45:22;11.07;;;6.47;;
37459;SDS011;23318;50.966;5.284;2024-02-26T05:47:48;10.70;;;6.28;;
37459;SDS011;23318;50.966;5.284;2024-02-26T05:50:14;8.52;;;5.65;;
37459;SDS011;23318;50.966;5.284;2024-02-26T05:52:40;14.40;;;6.47;;
37459;SDS011;23318;50.966;5.284;2024-02-26T05:55:06;8.45;;;5.85;;
37459;SDS011;23318;50.966;5.284;2024-02-26T05:57:33;9.27;;;6.60;;
37459;SDS011;23318;50.966;5.284;2024-02-26T05:59:59;9.23;;;6.60;;
37459;SDS011;23318;50.966;5.284;2024-02-26T06:02:29;12.02;;;6.75;;
37459;SDS011;23318;50.966;5.284;2024-02-26T06:04:55;11.55;;;6.97;;
37459;SDS011;23318;50.966;5.284;2024-02-26T06:07:21;10.73;;;7.18;;
37459;SDS011;23318;50.966;5.284;2024-02-26T06:09:47;12.02;;;8.00;;
37459;SDS011;23318;50.966;5.284;2024-02-26T06:12:13;13.57;;;8.45;;
37459;SDS011;23318;50.966;5.284;2024-02-26T06:14:39;13.80;;;8.50;;
37459;SDS011;23318;50.966;5.284;2024-02-26T06:17:04;15.02;;;8.38;;
37459;SDS011;23318;50.966;5.284;2024-02-26T06:19:30;12.48;;;8.20;;
37459;SDS011;23318;50.966;5.284;2024-02-26T06:21:56;11.52;;;7.82;;
37459;SDS011;23318;50.966;5.284;2024-02-26T06:24:21;13.57;;;7.68;;
37459;SDS011;23318;50.966;5.284;2024-02-26T06:26:47;14.73;;;8.07;;
37459;SDS011;23318;50.966;5.284;2024-02-26T06:29:13;17.73;;;9.68;;
37459;SDS011;23318;50.966;5.284;2024-02-26T06:31:39;15.50;;;9.23;;
37459;SDS011;23318;50.966;5.284;2024-02-26T06:34:05;14.75;;;8.32;;
37459;SDS011;23318;50.966;5.284;2024-02-26T06:36:30;17.85;;;9.30;;
37459;SDS011;23318;50.966;5.284;2024-02-26T06:38:57;14.77;;;8.68;;
37459;SDS011;23318;50.966;5.284;2024-02-26T06:41:22;15.40;;;8.18;;
37459;SDS011;23318;50.966;5.284;2024-02-26T06:43:55;11.63;;;7.65;;
37459;SDS011;23318;50.966;5.284;2024-02-26T06:46:22;14.07;;;8.73;;
37459;SDS011;23318;50.966;5.284;2024-02-26T06:48:48;14.90;;;9.68;;
37459;SDS011;23318;50.966;5.284;2024-02-26T06:51:14;14.32;;;8.90;;
37459;SDS011;23318;50.966;5.284;2024-02-26T06:53:40;14.98;;;8.40;;
37459;SDS011;23318;50.966;5.284;2024-02-26T06:56:05;14.10;;;8.30;;
37459;SDS011;23318;50.966;5.284;2024-02-26T06:58:31;13.68;;;8.38;;
37459;SDS011;23318;50.966;5.284;2024-02-26T07:00:57;14.52;;;8.15;;
37459;SDS011;23318;50.966;5.284;2024-02-26T07:03:23;16.50;;;9.43;;
37459;SDS011;23318;50.966;5.284;2024-02-26T07:05:50;13.73;;;8.57;;
37459;SDS011;23318;50.966;5.284;2024-02-26T07:08:16;18.98;;;10.35;;
37459;SDS011;23318;50.966;5.284;2024-02-26T07:10:42;11.43;;;7.88;;
37459;SDS011;23318;50.966;5.284;2024-02-26T07:13:08;15.25;;;9.90;;
37459;SDS011;23318;50.966;5.284;2024-02-26T07:15:34;20.15;;;11.57;;
37459;SDS011;23318;50.966;5.284;2024-02-26T07:18:00;14.25;;;9.13;;
37459;SDS011;23318;50.966;5.284;2024-02-26T07:20:28;12.23;;;8.85;;
37459;SDS011;23318;50.966;5.284;2024-02-26T07:22:55;16.58;;;10.45;;
37459;SDS011;23318;50.966;5.284;2024-02-26T07:25:21;15.07;;;9.63;;
37459;SDS011;23318;50.966;5.284;2024-02-26T07:27:46;13.35;;;8.95;;
37459;SDS011;23318;50.966;5.284;2024-02-26T07:30:12;16.15;;;8.95;;
37459;SDS011;23318;50.966;5.284;2024-02-26T07:32:38;21.20;;;10.60;;
37459;SDS011;23318;50.966;5.284;2024-02-26T07:35:04;15.60;;;9.02;;
37459;SDS011;23318;50.966;5.284;2024-02-26T07:37:30;16.00;;;10.52;;
37459;SDS011;23318;50.966;5.284;2024-02-26T07:39:56;18.02;;;11.60;;
37459;SDS011;23318;50.966;5.284;2024-02-26T07:42:21;15.15;;;10.32;;
37459;SDS011;23318;50.966;5.284;2024-02-26T07:44:47;15.95;;;10.48;;
37459;SDS011;23318;50.966;5.284;2024-02-26T07:47:13;18.50;;;11.00;;
37459;SDS011;23318;50.966;5.284;2024-02-26T07:49:39;16.48;;;11.23;;
37459;SDS011;23318;50.966;5.284;2024-02-26T07:52:05;15.98;;;10.40;;
37459;SDS011;23318;50.966;5.284;2024-02-26T07:54:31;14.93;;;10.65;;
37459;SDS011;23318;50.966;5.284;2024-02-26T07:56:57;15.40;;;10.25;;
37459;SDS011;23318;50.966;5.284;2024-02-26T07:59:23;15.70;;;10.90;;
37459;SDS011;23318;50.966;5.284;2024-02-26T08:01:52;14.98;;;10.40;;
37459;SDS011;23318;50.966;5.284;2024-02-26T08:04:18;18.10;;;9.88;;
37459;SDS011;23318;50.966;5.284;2024-02-26T08:06:43;16.35;;;11.43;;
37459;SDS011;23318;50.966;5.284;2024-02-26T08:09:09;18.33;;;11.27;;
37459;SDS011;23318;50.966;5.284;2024-02-26T08:11:35;14.98;;;11.27;;
37459;SDS011;23318;50.966;5.284;2024-02-26T08:14:00;16.30;;;11.85;;
37459;SDS011;23318;50.966;5.284;2024-02-26T08:16:26;15.73;;;12.05;;
37459;SDS011;23318;50.966;5.284;2024-02-26T08:18:52;14.98;;;11.10;;
37459;SDS011;23318;50.966;5.284;2024-02-26T08:21:18;17.45;;;12.82;;
37459;SDS011;23318;50.966;5.284;2024-02-26T08:23:43;18.50;;;13.52;;
37459;SDS011;23318;50.966;5.284;2024-02-26T08:26:09;16.38;;;12.10;;
37459;SDS011;23318;50.966;5.284;2024-02-26T08:28:36;17.75;;;12.73;;
37459;SDS011;23318;50.966;5.284;2024-02-26T08:31:03;18.63;;;12.65;;
37459;SDS011;23318;50.966;5.284;2024-02-26T08:33:28;18.38;;;13.43;;
37459;SDS011;23318;50.966;5.284;2024-02-26T08:35:55;18.35;;;12.55;;
37459;SDS011;23318;50.966;5.284;2024-02-26T08:38:21;20.90;;;14.50;;
37459;SDS011;23318;50.966;5.284;2024-02-26T08:40:48;18.55;;;12.90;;
37459;SDS011;23318;50.966;5.284;2024-02-26T08:43:14;19.52;;;13.45;;
37459;SDS011;23318;50.966;5.284;2024-02-26T08:45:39;20.85;;;14.07;;
37459;SDS011;23318;50.966;5.284;2024-02-26T08:48:05;20.02;;;13.68;;
37459;SDS011;23318;50.966;5.284;2024-02-26T08:50:31;17.83;;;13.88;;
37459;SDS011;23318;50.966;5.284;2024-02-26T08:52:57;18.17;;;12.90;;
37459;SDS011;23318;50.966;5.284;2024-02-26T08:55:22;17.00;;;12.93;;
37459;SDS011;23318;50.966;5.284;2024-02-26T08:57:48;22.45;;;14.27;;
37459;SDS011;23318;50.966;5.284;2024-02-26T09:00:14;19.02;;;13.48;;
37459;SDS011;23318;50.966;5.284;2024-02-26T09:02:45;16.85;;;12.75;;
37459;SDS011;23318;50.966;5.284;2024-02-26T09:05:12;23.80;;;13.38;;
37459;SDS011;23318;50.966;5.284;2024-02-26T09:07:38;20.92;;;12.52;;
37459;SDS011;23318;50.966;5.284;2024-02-26T09:10:04;17.75;;;11.57;;
37459;SDS011;23318;50.966;5.284;2024-02-26T09:12:31;19.02;;;11.95;;
37459;SDS011;23318;50.966;5.284;2024-02-26T09:14:56;19.10;;;12.15;;
37459;SDS011;23318;50.966;5.284;2024-02-26T09:17:22;15.25;;;10.43;;
37459;SDS011;23318;50.966;5.284;2024-02-26T09:19:48;13.95;;;9.52;;
37459;SDS011;23318;50.966;5.284;2024-02-26T09:22:13;15.73;;;9.57;;
37459;SDS011;23318;50.966;5.284;2024-02-26T09:24:39;11.65;;;8.10;;
37459;SDS011;23318;50.966;5.284;2024-02-26T09:27:05;12.40;;;8.77;;
37459;SDS011;23318;50.966;5.284;2024-02-26T09:29:30;13.65;;;8.38;;
37459;SDS011;23318;50.966;5.284;2024-02-26T09:31:56;12.98;;;8.48;;
37459;SDS011;23318;50.966;5.284;2024-02-26T09:34:22;10.82;;;7.97;;
37459;SDS011;23318;50.966;5.284;2024-02-26T09:36:47;14.63;;;8.30;;
37459;SDS011;23318;50.966;5.284;2024-02-26T09:39:13;10.95;;;7.63;;
37459;SDS011;23318;50.966;5.284;2024-02-26T09:41:39;15.93;;;10.07;;
37459;SDS011;23318;50.966;5.284;2024-02-26T09:44:05;14.93;;;9.85;;
37459;SDS011;23318;50.966;5.284;2024-02-26T09:46:32;14.30;;;9.50;;
37459;SDS011;23318;50.966;5.284;2024-02-26T09:48:58;12.82;;;9.75;;
37459;SDS011;23318;50.966;5.284;2024-02-26T09:51:24;14.93;;;10.45;;
37459;SDS011;23318;50.966;5.284;2024-02-26T09:53:51;16.90;;;11.68;;
37459;SDS011;23318;50.966;5.284;2024-02-26T09:56:17;17.40;;;12.00;;
37459;SDS011;23318;50.966;5.284;2024-02-26T09:58:43;17.52;;;11.90;;
37459;SDS011;23318;50.966;5.284;2024-02-26T10:01:16;18.38;;;13.05;;
37459;SDS011;23318;50.966;5.284;2024-02-26T10:03:43;19.17;;;13.13;;
37459;SDS011;23318;50.966;5.284;2024-02-26T10:06:12;20.10;;;13.52;;
37459;SDS011;23318;50.966;5.284;2024-02-26T10:08:39;19.17;;;13.77;;
37459;SDS011;23318;50.966;5.284;2024-02-26T10:11:05;19.48;;;13.52;;
37459;SDS011;23318;50.966;5.284;2024-02-26T10:13:34;19.85;;;13.93;;
37459;SDS011;23318;50.966;5.284;2024-02-26T10:16:01;20.10;;;13.80;;
37459;SDS011;23318;50.966;5.284;2024-02-26T10:18:44;20.73;;;14.45;;
37459;SDS011;23318;50.966;5.284;2024-02-26T10:21:13;17.60;;;13.05;;
37459;SDS011;23318;50.966;5.284;2024-02-26T10:23:42;19.83;;;14.02;;
37459;SDS011;23318;50.966;5.284;2024-02-26T10:26:09;21.52;;;14.65;;
37459;SDS011;23318;50.966;5.284;2024-02-26T10:28:37;17.33;;;13.38;;
37459;SDS011;23318;50.966;5.284;2024-02-26T10:31:04;19.90;;;13.93;;
37459;SDS011;23318;50.966;5.284;2024-02-26T10:33:29;19.10;;;14.20;;
37459;SDS011;23318;50.966;5.284;2024-02-26T10:35:58;16.75;;;12.52;;
37459;SDS011;23318;50.966;5.284;2024-02-26T10:38:24;18.85;;;13.55;;
37459;SDS011;23318;50.966;5.284;2024-02-26T10:40:49;19.23;;;12.98;;
37459;SDS011;23318;50.966;5.284;2024-02-26T10:43:15;18.13;;;12.93;;
37459;SDS011;23318;50.966;5.284;2024-02-26T10:45:41;20.25;;;14.80;;
37459;SDS011;23318;50.966;5.284;2024-02-26T10:48:13;20.02;;;12.48;;
37459;SDS011;23318;50.966;5.284;2024-02-26T10:50:40;17.23;;;12.48;;
37459;SDS011;23318;50.966;5.284;2024-02-26T10:53:10;15.50;;;11.80;;
37459;SDS011;23318;50.966;5.284;2024-02-26T10:55:41;16.60;;;12.35;;
37459;SDS011;23318;50.966;5.284;2024-02-26T10:58:08;18.63;;;12.23;;
37459;SDS011;23318;50.966;5.284;2024-02-26T11:00:35;16.83;;;12.00;;
37459;SDS011;23318;50.966;5.284;2024-02-26T11:03:02;16.48;;;12.40;;
37459;SDS011;23318;50.966;5.284;2024-02-26T11:05:30;14.95;;;11.45;;
37459;SDS011;23318;50.966;5.284;2024-02-26T11:07:58;21.23;;;13.32;;
37459;SDS011;23318;50.966;5.284;2024-02-26T11:10:26;16.88;;;12.68;;
37459;SDS011;23318;50.966;5.284;2024-02-26T11:12:55;17.13;;;12.10;;
37459;SDS011;23318;50.966;5.284;2024-02-26T11:15:24;16.27;;;11.98;;
37459;SDS011;23318;50.966;5.284;2024-02-26T11:17:51;17.88;;;12.82;;
37459;SDS011;23318;50.966;5.284;2024-02-26T11:20:18;18.17;;;11.52;;
37459;SDS011;23318;50.966;5.284;2024-02-26T11:22:45;18.35;;;12.23;;
37459;SDS011;23318;50.966;5.284;2024-02-26T11:25:10;18.70;;;11.63;;
37459;SDS011;23318;50.966;5.284;2024-02-26T11:27:42;16.33;;;11.68;;
37459;SDS011;23318;50.966;5.284;2024-02-26T11:30:12;13.77;;;10.90;;
37459;SDS011;23318;50.966;5.284;2024-02-26T11:32:40;23.17;;;13.93;;
37459;SDS011;23318;50.966;5.284;2024-02-26T11:35:10;18.48;;;11.07;;
37459;SDS011;23318;50.966;5.284;2024-02-26T11:37:38;16.85;;;11.98;;
37459;SDS011;23318;50.966;5.284;2024-02-26T11:40:04;14.50;;;10.80;;
37459;SDS011;23318;50.966;5.284;2024-02-26T11:42:37;16.17;;;11.45;;
37459;SDS011;23318;50.966;5.284;2024-02-26T11:48:13;17.23;;;11.73;;
37459;SDS011;23318;50.966;5.284;2024-02-26T11:50:40;13.05;;;10.40;;
37459;SDS011;23318;50.966;5.284;2024-02-26T11:58:44;13.50;;;10.60;;
37459;SDS011;23318;50.966;5.284;2024-02-26T12:04:11;14.68;;;11.57;;
37459;SDS011;23318;50.966;5.284;2024-02-26T12:06:47;16.08;;;11.27;;
37459;SDS011;23318;50.966;5.284;2024-02-26T12:09:37;16.02;;;11.20;;
37459;SDS011;23318;50.966;5.284;2024-02-26T12:12:10;13.48;;;10.88;;
37459;SDS011;23318;50.966;5.284;2024-02-26T12:14:39;13.32;;;11.10;;
37459;SDS011;23318;50.966;5.284;2024-02-26T12:17:06;15.35;;;10.95;;
37459;SDS011;23318;50.966;5.284;2024-02-26T12:19:43;15.63;;;10.20;;
37459;SDS011;23318;50.966;5.284;2024-02-26T12:22:11;13.85;;;9.30;;
37459;SDS011;23318;50.966;5.284;2024-02-26T12:24:38;11.70;;;8.85;;
37459;SDS011;23318;50.966;5.284;2024-02-26T12:27:04;12.35;;;9.23;;
37459;SDS011;23318;50.966;5.284;2024-02-26T12:29:29;11.15;;;8.27;;
37459;SDS011;23318;50.966;5.284;2024-02-26T12:31:55;12.27;;;8.68;;
37459;SDS011;23318;50.966;5.284;2024-02-26T12:34:21;11.68;;;7.93;;
37459;SDS011;23318;50.966;5.284;2024-02-26T12:36:47;11.77;;;9.20;;
37459;SDS011;23318;50.966;5.284;2024-02-26T12:39:13;12.98;;;9.23;;
37459;SDS011;23318;50.966;5.284;2024-02-26T12:41:38;12.07;;;9.65;;
37459;SDS011;23318;50.966;5.284;2024-02-26T12:44:05;10.70;;;8.15;;
37459;SDS011;23318;50.966;5.284;2024-02-26T12:46:32;9.90;;;7.22;;
37459;SDS011;23318;50.966;5.284;2024-02-26T12:48:58;10.27;;;8.20;;
37459;SDS011;23318;50.966;5.284;2024-02-26T12:51:24;14.63;;;8.85;;
37459;SDS011;23318;50.966;5.284;2024-02-26T12:53:51;12.73;;;8.05;;
37459;SDS011;23318;50.966;5.284;2024-02-26T12:56:18;11.05;;;8.00;;
37459;SDS011;23318;50.966;5.284;2024-02-26T12:58:43;9.25;;;7.43;;
37459;SDS011;23318;50.966;5.284;2024-02-26T13:01:13;8.20;;;6.93;;
37459;SDS011;23318;50.966;5.284;2024-02-26T13:03:41;11.07;;;7.15;;
37459;SDS011;23318;50.966;5.284;2024-02-26T13:06:08;10.13;;;7.28;;
37459;SDS011;23318;50.966;5.284;2024-02-26T13:08:34;12.95;;;8.70;;
37459;SDS011;23318;50.966;5.284;2024-02-26T13:11:00;15.25;;;9.60;;
37459;SDS011;23318;50.966;5.284;2024-02-26T13:13:26;14.63;;;10.30;;
37459;SDS011;23318;50.966;5.284;2024-02-26T13:16:04;11.20;;;8.98;;
37459;SDS011;23318;50.966;5.284;2024-02-26T13:18:33;11.68;;;8.90;;
37459;SDS011;23318;50.966;5.284;2024-02-26T13:23:54;16.67;;;11.50;;
37459;SDS011;23318;50.966;5.284;2024-02-26T13:26:21;11.05;;;9.13;;
37459;SDS011;23318;50.966;5.284;2024-02-26T13:28:58;12.35;;;9.80;;
37459;SDS011;23318;50.966;5.284;2024-02-26T13:31:28;10.50;;;8.75;;
37459;SDS011;23318;50.966;5.284;2024-02-26T13:33:54;15.13;;;11.10;;
37459;SDS011;23318;50.966;5.284;2024-02-26T13:36:21;13.05;;;9.25;;
37459;SDS011;23318;50.966;5.284;2024-02-26T13:38:54;11.68;;;8.95;;
37459;SDS011;23318;50.966;5.284;2024-02-26T13:41:21;11.55;;;9.23;;
37459;SDS011;23318;50.966;5.284;2024-02-26T13:43:47;14.68;;;9.73;;
37459;SDS011;23318;50.966;5.284;2024-02-26T13:46:13;15.30;;;9.38;;
37459;SDS011;23318;50.966;5.284;2024-02-26T13:48:40;14.18;;;9.45;;
37459;SDS011;23318;50.966;5.284;2024-02-26T13:51:06;11.77;;;8.88;;
37459;SDS011;23318;50.966;5.284;2024-02-26T13:53:32;13.80;;;9.35;;
37459;SDS011;23318;50.966;5.284;2024-02-26T13:55:58;14.88;;;10.02;;
37459;SDS011;23318;50.966;5.284;2024-02-26T13:58:26;14.25;;;10.73;;
37459;SDS011;23318;50.966;5.284;2024-02-26T14:00:55;14.82;;;9.82;;
37459;SDS011;23318;50.966;5.284;2024-02-26T14:03:21;13.70;;;9.82;;
37459;SDS011;23318;50.966;5.284;2024-02-26T14:05:47;14.60;;;10.80;;
37459;SDS011;23318;50.966;5.284;2024-02-26T14:08:13;15.93;;;11.50;;
37459;SDS011;23318;50.966;5.284;2024-02-26T14:10:39;19.42;;;11.75;;
37459;SDS011;23318;50.966;5.284;2024-02-26T14:13:05;17.77;;;12.40;;
37459;SDS011;23318;50.966;5.284;2024-02-26T14:15:30;18.75;;;12.57;;
37459;SDS011;23318;50.966;5.284;2024-02-26T14:17:57;16.48;;;12.73;;
37459;SDS011;23318;50.966;5.284;2024-02-26T14:20:23;20.30;;;13.90;;
37459;SDS011;23318;50.966;5.284;2024-02-26T14:22:50;20.90;;;13.57;;
37459;SDS011;23318;50.966;5.284;2024-02-26T14:25:19;18.25;;;12.98;;
37459;SDS011;23318;50.966;5.284;2024-02-26T14:27:48;23.38;;;14.63;;
37459;SDS011;23318;50.966;5.284;2024-02-26T14:30:14;19.15;;;12.45;;
37459;SDS011;23318;50.966;5.284;2024-02-26T14:32:40;16.98;;;12.70;;
37459;SDS011;23318;50.966;5.284;2024-02-26T14:35:06;16.90;;;11.82;;
37459;SDS011;23318;50.966;5.284;2024-02-26T14:37:34;19.73;;;12.77;;
37459;SDS011;23318;50.966;5.284;2024-02-26T14:40:00;18.17;;;12.43;;
37459;SDS011;23318;50.966;5.284;2024-02-26T14:42:27;17.33;;;12.10;;
37459;SDS011;23318;50.966;5.284;2024-02-26T14:44:53;19.08;;;12.10;;
37459;SDS011;23318;50.966;5.284;2024-02-26T14:47:19;15.23;;;11.13;;